RS-0005 weather

Aerodrom Vojka Nova Pazova
Serbia

Public forecast

Using degrees Celsius for public forecast. Weather courtesy of forecast.io.

Closest aviation weather report (METAR) to Aerodrom Vojka Nova Pazova

Closest report is Batajnica Air Base, 3.7 nm (6.8 km) E. Retrieved 2020/01/27 08:00 UTC (27 minutes ago):

LYBT 270800Z 33004KT 2500 -RA BR BKN005 OVC020 02/02 Q1018 NOSIG

Closest aviation forecast (TAF) to Aerodrom Vojka Nova Pazova

Closest forecast is Batajnica Air Base, 3.7 nm (6.8 km) E. Retrieved 2020/01/27 06:00 UTC (2 hours ago):

TAF LYBT 270500Z 2706/2806 33007KT 3000 -RA BR SCT010 BKN030 TX04/2713Z TN01/2806Z TEMPO 2706/2710 2000 RA BKN007 BKN027 BECMG 2712/2714 6000 NSW BECMG 2716/2718 3000 BR BKN010 BECMG 2722/2724 1500 BKN005 TEMPO 2802/2806 0600 FG BKN003